Olympia Regional Airport
KOLM : now visible

Airfield :











YOU CAN JOIN US ON...

 
LOGIN :

Register | Disclaimer

   EN    FR    IT 

 









Legend :    VFR   Marginal VFR   IFR   Intensive IFR   Very Intensive IFR
Visi :
Ceiling :
>= 8 km
>= 3000ft
5 to 8 km
1000 to 3000 ft
1500m to 5 km
500 to 1000 ft
800 to 1500m
200 to 500 ft
< 800m
< 200 ft
Symbols :   Thunderstorms  Fog  Heavy snow  Heavy precipitations  Wind > 20 kt






- Airport Elevation : 209 ft
- IATA code : OLM


KOLM - Olympia Regional

CURRENT METAR :
  • 171454Z AUTO 22005KT 6SM -RA BR FEW038 BKN049 OVC065 11/09 A3010 RMK AO2 RAB03 SLP194 P0008 60009 T01060094 55002

EXPIRED METARs :
  • 171354Z AUTO 18007KT 10SM OVC036 11/09 A3010 RMK AO2 RAB40E50 SLP193 P0000 T01060094
  • 171254Z AUTO 25003KT 10SM OVC038 11/09 A3010 RMK AO2 RAE15 SLP194 P0001 T01060094

TAF KOLM
Valid from the 17 at 14:00 until the 18 at 12:00 UTC


171401Z 1714/1812 19007KT 6SM -RA BR SCT020 OVC035 WS020/23030KT
FM171800 21009KT 4SM -RA BR BKN018 OVC025
FM172200 22007KT P6SM VCSH OVC015
FM180500 00000KT 3SM BR SCT004 OVC008



MET'MAP, your aeronautical weather chart ! - Copyright ORBIFLY December 2007 - Disclaimer

ORBIFLY MET'MAP TEAM :

Programming & Development : Alexandra Zaïnal
Concept & Development : Baudouin d'Aumeries
Co-Development & Prog : Marc-Olivier Méhu
Technical & hardware support : Manuel Goepfert

Contact : metmap@orbifly.com




SOURCES & CREDITS :

   NOAA       Earth
Advisory